Time;durP1;ratioP1;P1;durP2;ratioP2;P2;SDS_P1;SDS_P2;PMS_P1;PMS_P2;Temp;Humidity;BMP_temperature;BMP_pressure;BME280_temperature;BME280_humidity;BME280_pressure;Samples;Min_cycle;Max_cycle;Signal;HPM_P1;HPM_P2
2022/09/28 00:00:15;;;;;;;;;;;;;;;;;;4989306;28;19914;-75
2022/09/28 00:02:41;;;;;;;;;;;;;;;;;;5005454;28;19969;-75
2022/09/28 00:05:06;;;;;;;;;;;;;;;;;;4990352;28;19914;-75
2022/09/28 00:07:32;;;;;;;;;;;;;;;;;;4987298;28;19913;-75
2022/09/28 00:09:58;;;;;;;;;;;;;;;;;;5003220;28;19914;-74
2022/09/28 00:12:24;;;;;;;;;;;;;;;;;;4971016;28;19914;-75
2022/09/28 00:14:50;;;;;;;;;;;;;;;;;;4985537;28;19993;-74
2022/09/28 00:17:15;;;;;;;;;;;;;;;;;;4967405;28;20013;-74
2022/09/28 00:19:42;;;;;;;;;;;;;;;;;;4985292;28;19917;-76
2022/09/28 00:22:08;;;;;;;;;;;;;;;;;;4998624;28;19921;-75
2022/09/28 00:24:33;;;;;;;;;;;;;;;;;;4967278;28;19949;-74
2022/09/28 00:27:00;;;;;;;;;;;;;;;;;;4966642;28;20322;-76
2022/09/28 00:29:26;;;;;;;;;;;;;;;;;;4998191;28;19914;-75
2022/09/28 00:31:51;;;;;;;;;;;;;;;;;;4982368;28;20254;-75
2022/09/28 00:34:17;;;;;;;;;;;;;;;;;;4997592;28;20020;-74
2022/09/28 00:36:43;;;;;;;;;;;;;;;;;;4965869;28;19921;-75
2022/09/28 00:39:08;;;;;;;;;;;;;;;;;;4965162;28;19910;-76
2022/09/28 00:41:34;;;;;;;;;;;;;;;;;;4965248;28;20027;-75
2022/09/28 00:44:00;;;;;;;;;;;;;;;;;;4964992;28;19914;-74
2022/09/28 00:46:25;;;;;;;;;;;;;;;;;;4980166;28;19961;-74
2022/09/28 00:48:51;;;;;;;;;;;;;;;;;;4996798;28;19921;-75
2022/09/28 00:51:16;;;;;;;;;;;;;;;;;;4980570;28;19917;-76
2022/09/28 00:53:42;;;;;;;;;;;;;;;;;;4980649;28;19914;-75
2022/09/28 00:56:08;;;;;;;;;;;;;;;;;;4981628;28;19997;-74
2022/09/28 00:58:33;;;;;;;;;;;;;;;;;;4977695;28;19936;-74
2022/09/28 01:00:59;;;;;;;;;;;;;;;;;;4993773;28;19921;-75
2022/09/28 01:03:24;;;;;;;;;;;;;;;;;;4997050;28;19914;-76
2022/09/28 01:05:50;;;;;;;;;;;;;;;;;;4997540;28;20222;-74
2022/09/28 01:08:15;;;;;;;;;;;;;;;;;;4987194;28;20017;-74
2022/09/28 01:10:42;;;;;;;;;;;;;;;;;;5000269;28;19922;-74
2022/09/28 01:13:08;;;;;;;;;;;;;;;;;;4999157;28;19959;-75
2022/09/28 01:15:34;;;;;;;;;;;;;;;;;;4999680;28;20339;-76
2022/09/28 01:18:03;;;;;;;;;;;;;;;;;;4998601;28;19999;-75
2022/09/28 01:20:36;;;;;;;;;;;;;;;;;;4998319;28;19924;-75
2022/09/28 01:23:02;;;;;;;;;;;;;;;;;;4980930;28;19913;-77
2022/09/28 01:25:27;;;;;;;;;;;;;;;;;;4998094;28;19939;-74
2022/09/28 01:27:53;;;;;;;;;;;;;;;;;;4997230;28;20332;-75
2022/09/28 01:30:22;;;;;;;;;;;;;;;;;;4997816;28;19956;-74
2022/09/28 01:32:47;;;;;;;;;;;;;;;;;;4997358;28;19952;-75
2022/09/28 01:35:14;;;;;;;;;;;;;;;;;;4997852;28;19914;-75
2022/09/28 01:37:40;;;;;;;;;;;;;;;;;;4998172;28;20004;-76
2022/09/28 01:40:06;;;;;;;;;;;;;;;;;;4996358;28;20019;-75
2022/09/28 01:42:32;;;;;;;;;;;;;;;;;;4996570;28;19914;-74
2022/09/28 01:44:57;;;;;;;;;;;;;;;;;;4997270;28;19914;-75
2022/09/28 01:47:23;;;;;;;;;;;;;;;;;;4996944;28;19921;-74
2022/09/28 01:49:48;;;;;;;;;;;;;;;;;;5005495;22;19948;-76
2022/09/28 01:52:14;;;;;;;;;;;;;;;;;;4992580;28;19980;-76
2022/09/28 01:54:39;;;;;;;;;;;;;;;;;;4965846;28;19911;-75
2022/09/28 01:57:04;;;;;;;;;;;;;;;;;;4992485;28;19918;-75
2022/09/28 01:59:30;;;;;;;;;;;;;;;;;;4992384;28;20400;-75
2022/09/28 02:01:55;;;;;;;;;;;;;;;;;;4992517;28;19914;-75
2022/09/28 02:04:20;;;;;;;;;;;;;;;;;;4992438;28;20269;-76
2022/09/28 02:06:47;;;;;;;;;;;;;;;;;;4991652;28;20020;-76
2022/09/28 02:09:12;;;;;;;;;;;;;;;;;;4976302;28;20424;-76
2022/09/28 02:11:41;;;;;;;;;;;;;;;;;;4992403;28;19917;-75
2022/09/28 02:14:06;;;;;;;;;;;;;;;;;;4992086;28;19921;-75
2022/09/28 02:16:32;;;;;;;;;;;;;;;;;;4992675;28;20005;-76
2022/09/28 02:18:57;;;;;;;;;;;;;;;;;;4992135;28;20389;-76
2022/09/28 02:21:22;;;;;;;;;;;;;;;;;;4993219;28;19917;-76
2022/09/28 02:23:48;;;;;;;;;;;;;;;;;;4993148;28;20380;-76
2022/09/28 02:26:13;;;;;;;;;;;;;;;;;;4992005;28;19917;-74
2022/09/28 02:28:38;;;;;;;;;;;;;;;;;;4991948;28;19920;-76
2022/09/28 02:31:04;;;;;;;;;;;;;;;;;;4992133;28;19920;-75
2022/09/28 02:33:30;;;;;;;;;;;;;;;;;;4975795;28;20501;-77
2022/09/28 02:35:55;;;;;;;;;;;;;;;;;;4991800;28;20377;-76
2022/09/28 02:38:22;;;;;;;;;;;;;;;;;;4991739;28;19945;-77
2022/09/28 02:40:47;;;;;;;;;;;;;;;;;;4991877;28;20411;-76
2022/09/28 02:43:13;;;;;;;;;;;;;;;;;;4991842;28;20293;-78
2022/09/28 02:45:38;;;;;;;;;;;;;;;;;;4991979;28;20286;-76
2022/09/28 02:48:04;;;;;;;;;;;;;;;;;;4975591;28;20384;-78
2022/09/28 02:50:29;;;;;;;;;;;;;;;;;;4992890;28;20444;-76
2022/09/28 02:52:54;;;;;;;;;;;;;;;;;;4991570;28;20393;-75
2022/09/28 02:55:20;;;;;;;;;;;;;;;;;;4992751;28;20320;-76
2022/09/28 02:57:48;;;;;;;;;;;;;;;;;;4991670;28;19910;-76
2022/09/28 03:00:13;;;;;;;;;;;;;;;;;;4975659;28;19914;-76
2022/09/28 03:02:39;;;;;;;;;;;;;;;;;;4992766;28;19913;-75
2022/09/28 03:05:04;;;;;;;;;;;;;;;;;;4992658;28;19914;-77
2022/09/28 03:07:31;;;;;;;;;;;;;;;;;;4991468;28;19914;-77
2022/09/28 03:09:56;;;;;;;;;;;;;;;;;;4991521;28;19921;-77
2022/09/28 03:12:22;;;;;;;;;;;;;;;;;;4991274;28;19968;-75
2022/09/28 03:14:47;;;;;;;;;;;;;;;;;;4992037;28;19918;-76
2022/09/28 03:17:13;;;;;;;;;;;;;;;;;;4975341;28;20429;-77
2022/09/28 03:19:38;;;;;;;;;;;;;;;;;;4978987;28;20369;-77
2022/09/28 03:22:04;;;;;;;;;;;;;;;;;;4995573;28;19914;-77
2022/09/28 03:24:29;;;;;;;;;;;;;;;;;;4996815;28;19921;-76
2022/09/28 03:26:55;;;;;;;;;;;;;;;;;;4997528;28;20326;-76
2022/09/28 03:29:21;;;;;;;;;;;;;;;;;;4998542;28;19914;-74
2022/09/28 03:31:51;;;;;;;;;;;;;;;;;;5000172;28;20001;-76
2022/09/28 03:34:17;;;;;;;;;;;;;;;;;;4998778;28;19964;-76
2022/09/28 03:36:42;;;;;;;;;;;;;;;;;;4994999;28;19910;-77
2022/09/28 03:39:08;;;;;;;;;;;;;;;;;;4996434;28;19925;-75
2022/09/28 03:41:33;;;;;;;;;;;;;;;;;;4995055;28;19921;-75
2022/09/28 03:43:59;;;;;;;;;;;;;;;;;;4979283;28;19982;-76
2022/09/28 03:46:26;;;;;;;;;;;;;;;;;;4994807;28;19918;-76
2022/09/28 03:48:55;;;;;;;;;;;;;;;;;;4978754;28;19918;-77
2022/09/28 03:51:20;;;;;;;;;;;;;;;;;;4978539;28;19974;-77
2022/09/28 03:53:45;;;;;;;;;;;;;;;;;;4994792;28;19914;-75
2022/09/28 03:56:11;;;;;;;;;;;;;;;;;;4991313;28;19984;-75
2022/09/28 03:58:37;;;;;;;;;;;;;;;;;;5003371;28;19922;-76
2022/09/28 04:01:03;;;;;;;;;;;;;;;;;;4994788;28;19914;-76
2022/09/28 04:03:28;;;;;;;;;;;;;;;;;;4994350;28;19914;-75
2022/09/28 04:05:54;;;;;;;;;;;;;;;;;;4994701;28;19924;-76
2022/09/28 04:08:19;;;;;;;;;;;;;;;;;;4994537;28;19924;-76
2022/09/28 04:10:44;;;;;;;;;;;;;;;;;;4994522;28;19968;-77
2022/09/28 04:13:10;;;;;;;;;;;;;;;;;;4978082;28;20274;-76
2022/09/28 04:15:37;;;;;;;;;;;;;;;;;;4994233;28;19918;-75
2022/09/28 04:18:02;;;;;;;;;;;;;;;;;;4995350;28;19914;-75
2022/09/28 04:20:51;;;;;;;;;;;;;;;;;;4994270;28;19920;-76
2022/09/28 04:23:16;;;;;;;;;;;;;;;;;;4994097;28;19914;-76
2022/09/28 04:25:46;;;;;;;;;;;;;;;;;;4994073;28;19924;-76
2022/09/28 04:30:56;;;;;;;;;;;;;;;;;;4993032;28;19914;-77
2022/09/28 04:33:21;;;;;;;;;;;;;;;;;;4993806;28;19913;-76
2022/09/28 04:35:46;;;;;;;;;;;;;;;;;;4994012;28;19920;-77
2022/09/28 04:38:12;;;;;;;;;;;;;;;;;;4980481;28;19959;-76
2022/09/28 04:40:39;;;;;;;;;;;;;;;;;;4977696;28;19913;-77
2022/09/28 04:43:04;;;;;;;;;;;;;;;;;;4993591;28;20385;-77
2022/09/28 04:45:30;;;;;;;;;;;;;;;;;;4993450;28;19918;-77
2022/09/28 04:48:01;;;;;;;;;;;;;;;;;;4978212;28;19925;-76
2022/09/28 04:50:48;;;;;;;;;;;;;;;;;;4989077;28;19914;-75
2022/09/28 04:53:17;;;;;;;;;;;;;;;;;;4993159;28;19913;-77
2022/09/28 04:55:46;;;;;;;;;;;;;;;;;;4989931;28;19954;-77
2022/09/28 04:58:11;;;;;;;;;;;;;;;;;;4998754;28;19952;-77
2022/09/28 05:00:37;;;;;;;;;;;;;;;;;;4993595;28;19926;-76
2022/09/28 05:03:22;;;;;;;;;;;;;;;;;;4984507;28;20369;-77
2022/09/28 05:06:14;;;;;;;;;;;;;;;;;;4993286;28;19965;-77
2022/09/28 05:08:42;;;;;;;;;;;;;;;;;;4993013;28;19964;-76
2022/09/28 05:11:07;;;;;;;;;;;;;;;;;;4994133;28;19949;-77
2022/09/28 05:13:34;;;;;;;;;;;;;;;;;;4993009;28;20404;-77
2022/09/28 05:15:59;;;;;;;;;;;;;;;;;;4993359;28;19921;-76
2022/09/28 05:18:25;;;;;;;;;;;;;;;;;;4993086;28;19961;-77
2022/09/28 05:21:00;;;;;;;;;;;;;;;;;;4994158;28;19921;-77
2022/09/28 05:23:25;;;;;;;;;;;;;;;;;;4992962;28;19954;-77
2022/09/28 05:25:53;;;;;;;;;;;;;;;;;;4992902;28;20369;-77
2022/09/28 05:28:24;;;;;;;;;;;;;;;;;;4994309;28;19936;-76
2022/09/28 05:31:08;;;;;;;;;;;;;;;;;;4993715;28;20390;-76
2022/09/28 05:33:54;;;;;;;;;;;;;;;;;;4992578;28;19920;-76
2022/09/28 05:36:20;;;;;;;;;;;;;;;;;;4976934;28;20330;-77
2022/09/28 05:38:45;;;;;;;;;;;;;;;;;;4993219;28;19992;-77
2022/09/28 05:41:13;;;;;;;;;;;;;;;;;;4992111;28;19918;-75
2022/09/28 05:43:38;;;;;;;;;;;;;;;;;;4993774;28;19996;-76
2022/09/28 05:46:04;;;;;;;;;;;;;;;;;;4992272;28;19964;-77
2022/09/28 05:48:29;;;;;;;;;;;;;;;;;;4992199;28;20376;-76
2022/09/28 05:50:57;;;;;;;;;;;;;;;;;;4959773;28;22276;-76
2022/09/28 05:53:23;;;;;;;;;;;;;;;;;;4991840;28;19913;-77
2022/09/28 05:55:48;;;;;;;;;;;;;;;;;;4975016;28;19961;-76
2022/09/28 05:58:13;;;;;;;;;;;;;;;;;;4992217;28;19922;-75
2022/09/28 06:00:39;;;;;;;;;;;;;;;;;;4992099;28;19909;-76
2022/09/28 06:03:11;;;;;;;;;;;;;;;;;;5106056;27;19962;-75
2022/09/28 06:05:38;;;;;;;;;;;;;;;;;;5075635;28;20374;-76
2022/09/28 06:08:04;;;;;;;;;;;;;;;;;;5100387;28;20003;-76
2022/09/28 06:10:29;;;;;;;;;;;;;;;;;;5082584;28;19970;-75
2022/09/28 06:12:57;;;;;;;;;;;;;;;;;;5092870;28;20379;-76
2022/09/28 06:15:23;;;;;;;;;;;;;;;;;;5105049;28;19938;-76
2022/09/28 06:17:48;;;;;;;;;;;;;;;;;;5095139;28;19912;-75
2022/09/28 06:20:34;;;;;;;;;;;;;;;;;;5082221;28;19958;-77
2022/09/28 06:23:10;;;;;;;;;;;;;;;;;;5104755;28;19924;-77
2022/09/28 06:25:35;;;;;;;;;;;;;;;;;;5093055;28;20298;-75
2022/09/28 06:28:01;;;;;;;;;;;;;;;;;;5100309;28;19927;-76
2022/09/28 06:30:27;;;;;;;;;;;;;;;;;;5100220;28;19972;-77
2022/09/28 06:32:52;;;;;;;;;;;;;;;;;;5076352;28;19999;-75
2022/09/28 06:35:18;;;;;;;;;;;;;;;;;;5104710;28;19911;-75
2022/09/28 06:37:43;;;;;;;;;;;;;;;;;;5076081;28;19916;-77
2022/09/28 06:40:09;;;;;;;;;;;;;;;;;;5098948;28;19998;-76
2022/09/28 06:42:34;;;;;;;;;;;;;;;;;;5082602;28;19964;-77
2022/09/28 06:45:29;;;;;;;;;;;;;;;;;;5090742;28;19967;-77
2022/09/28 06:48:13;;;;;;;;;;;;;;;;;;5098505;28;19965;-75
2022/09/28 06:50:40;;;;;;;;;;;;;;;;;;5100446;28;19962;-75
2022/09/28 06:53:23;;;;;;;;;;;;;;;;;;5075984;28;19908;-77
2022/09/28 06:55:55;;;;;;;;;;;;;;;;;;5105086;28;19921;-75
2022/09/28 06:58:21;;;;;;;;;;;;;;;;;;5096661;28;19919;-75
2022/09/28 07:00:46;;;;;;;;;;;;;;;;;;5067767;28;20223;-76
2022/09/28 07:03:12;;;;;;;;;;;;;;;;;;5110751;28;19951;-76
2022/09/28 07:05:57;;;;;;;;;;;;;;;;;;5120440;28;20275;-77
2022/09/28 07:08:39;;;;;;;;;;;;;;;;;;5122061;28;20244;-76
2022/09/28 07:11:25;;;;;;;;;;;;;;;;;;5111949;28;19916;-77
2022/09/28 07:14:19;;;;;;;;;;;;;;;;;;5104562;27;19954;-77
2022/09/28 07:16:45;;;;;;;;;;;;;;;;;;5107537;28;19919;-76
2022/09/28 07:19:10;;;;;;;;;;;;;;;;;;5096820;28;19912;-76
2022/09/28 07:21:35;;;;;;;;;;;;;;;;;;5109512;28;19916;-76
2022/09/28 07:24:02;;;;;;;;;;;;;;;;;;5084492;28;19912;-75
2022/09/28 07:26:51;;;;;;;;;;;;;;;;;;5100440;28;19912;-76
2022/09/28 07:29:30;;;;;;;;;;;;;;;;;;5111272;28;19916;-76
2022/09/28 07:32:19;;;;;;;;;;;;;;;;;;5096601;28;19916;-77
2022/09/28 07:35:06;;;;;;;;;;;;;;;;;;5097728;28;19916;-79
2022/09/28 07:37:38;;;;;;;;;;;;;;;;;;5097768;28;19918;-75
2022/09/28 07:42:47;;;;;;;;;;;;;;;;;;5107224;28;19996;-76
2022/09/28 07:45:13;;;;;;;;;;;;;;;;;;5079924;28;19970;-75
2022/09/28 07:47:38;;;;;;;;;;;;;;;;;;5108805;28;19919;-76
2022/09/28 07:50:23;;;;;;;;;;;;;;;;;;5086874;22;19931;-75
2022/09/28 07:53:08;;;;;;;;;;;;;;;;;;5041050;28;19913;-74
2022/09/28 07:55:53;;;;;;;;;;;;;;;;;;5043078;28;20058;-75
2022/09/28 07:58:35;;;;;;;;;;;;;;;;;;5032626;28;19912;-75
2022/09/28 08:01:30;;;;;;;;;;;;;;;;;;5079933;28;19916;-76
2022/09/28 08:03:56;;;;;;;;;;;;;;;;;;5079836;28;19912;-73
2022/09/28 08:06:22;;;;;;;;;;;;;;;;;;5047233;28;19919;-75
2022/09/28 08:08:49;;;;;;;;;;;;;;;;;;5048749;28;19912;-75
2022/09/28 08:11:17;;;;;;;;;;;;;;;;;;5060435;28;19920;-76
2022/09/28 08:14:02;;;;;;;;;;;;;;;;;;5068607;28;19917;-74
2022/09/28 08:16:51;;;;;;;;;;;;;;;;;;5039973;28;19917;-74
2022/09/28 08:22:20;;;;;;;;;;;;;;;;;;5075283;28;19916;-74
2022/09/28 08:24:48;;;;;;;;;;;;;;;;;;5061286;28;19950;-76
2022/09/28 08:27:15;;;;;;;;;;;;;;;;;;5060448;28;19920;-75
2022/09/28 08:29:41;;;;;;;;;;;;;;;;;;5078549;28;19916;-74
2022/09/28 08:32:34;;;;;;;;;;;;;;;;;;5096184;28;19948;-76
2022/09/28 08:35:25;;;;;;;;;;;;;;;;;;5078548;28;19919;-74
2022/09/28 08:38:12;;;;;;;;;;;;;;;;;;5044160;28;20375;-75
2022/09/28 08:40:58;;;;;;;;;;;;;;;;;;5053621;28;19912;-73
2022/09/28 08:43:34;;;;;;;;;;;;;;;;;;5033578;28;20264;-76
2022/09/28 08:46:26;;;;;;;;;;;;;;;;;;5082441;28;20081;-75
2022/09/28 08:49:10;;;;;;;;;;;;;;;;;;5084397;28;20321;-75
2022/09/28 08:51:55;;;;;;;;;;;;;;;;;;5063204;28;19917;-75
2022/09/28 08:54:29;;;;;;;;;;;;;;;;;;5059713;28;19913;-75
2022/09/28 08:56:57;;;;;;;;;;;;;;;;;;5061830;28;19912;-76
2022/09/28 08:59:23;;;;;;;;;;;;;;;;;;5049050;28;19951;-74
2022/09/28 09:01:55;;;;;;;;;;;;;;;;;;5051012;28;20082;-75
2022/09/28 09:04:21;;;;;;;;;;;;;;;;;;5072552;28;19934;-76
2022/09/28 09:07:18;;;;;;;;;;;;;;;;;;5043812;28;19974;-74
2022/09/28 09:09:53;;;;;;;;;;;;;;;;;;5060794;28;19912;-76
2022/09/28 09:12:19;;;;;;;;;;;;;;;;;;5053422;28;19919;-76
2022/09/28 09:14:49;;;;;;;;;;;;;;;;;;5025876;28;19909;-75
2022/09/28 09:17:14;;;;;;;;;;;;;;;;;;5084853;28;19988;-76
2022/09/28 09:19:43;;;;;;;;;;;;;;;;;;5093657;28;19952;-77
2022/09/28 09:22:27;;;;;;;;;;;;;;;;;;5082366;28;20386;-76
2022/09/28 09:24:52;;;;;;;;;;;;;;;;;;5049794;28;20016;-75
2022/09/28 09:27:19;;;;;;;;;;;;;;;;;;5042239;28;19913;-75
2022/09/28 09:29:45;;;;;;;;;;;;;;;;;;5060153;28;19916;-75
2022/09/28 09:32:10;;;;;;;;;;;;;;;;;;5062487;28;19912;-76
2022/09/28 09:34:36;;;;;;;;;;;;;;;;;;5057494;28;19979;-75
2022/09/28 09:37:20;;;;;;;;;;;;;;;;;;5062681;28;19912;-75
2022/09/28 09:40:07;;;;;;;;;;;;;;;;;;5076700;28;19940;-75
2022/09/28 09:42:52;;;;;;;;;;;;;;;;;;5060025;28;19994;-75
2022/09/28 09:45:43;;;;;;;;;;;;;;;;;;5028257;28;19912;-74
2022/09/28 09:48:28;;;;;;;;;;;;;;;;;;5050638;28;19917;-75
2022/09/28 09:50:54;;;;;;;;;;;;;;;;;;5045942;28;19916;-76
2022/09/28 09:53:21;;;;;;;;;;;;;;;;;;5045911;28;19999;-75
2022/09/28 09:55:46;;;;;;;;;;;;;;;;;;5056757;28;19948;-75
2022/09/28 09:58:43;;;;;;;;;;;;;;;;;;5052506;28;19912;-75
2022/09/28 10:01:19;;;;;;;;;;;;;;;;;;5046654;28;19916;-75
2022/09/28 10:04:07;;;;;;;;;;;;;;;;;;5044159;28;19948;-75
2022/09/28 10:06:33;;;;;;;;;;;;;;;;;;5065393;28;19920;-75
2022/09/28 10:08:59;;;;;;;;;;;;;;;;;;5066555;28;19912;-75
2022/09/28 10:11:25;;;;;;;;;;;;;;;;;;5048071;28;19912;-75
2022/09/28 10:13:54;;;;;;;;;;;;;;;;;;5082902;28;19912;-74
2022/09/28 10:16:40;;;;;;;;;;;;;;;;;;5099907;28;19922;-74
2022/09/28 10:19:12;;;;;;;;;;;;;;;;;;5044872;28;19919;-76
2022/09/28 10:22:01;;;;;;;;;;;;;;;;;;5055927;28;19916;-75
2022/09/28 10:24:28;;;;;;;;;;;;;;;;;;5044915;28;19912;-76
2022/09/28 10:26:54;;;;;;;;;;;;;;;;;;5044970;28;19908;-76
2022/09/28 10:29:20;;;;;;;;;;;;;;;;;;5043551;28;19919;-75
2022/09/28 10:31:47;;;;;;;;;;;;;;;;;;5077343;28;19934;-75
2022/09/28 10:34:21;;;;;;;;;;;;;;;;;;5059334;28;19916;-74
2022/09/28 10:36:47;;;;;;;;;;;;;;;;;;5091621;28;20287;-75
2022/09/28 10:39:13;;;;;;;;;;;;;;;;;;5064326;28;20260;-75
2022/09/28 10:41:39;;;;;;;;;;;;;;;;;;5095003;28;19923;-74
2022/09/28 10:44:10;;;;;;;;;;;;;;;;;;5055031;28;19916;-76
2022/09/28 10:46:46;;;;;;;;;;;;;;;;;;5041918;28;19912;-75
2022/09/28 10:49:14;;;;;;;;;;;;;;;;;;5064091;28;19916;-76
2022/09/28 10:51:41;;;;;;;;;;;;;;;;;;5053429;28;19969;-76
2022/09/28 10:54:11;;;;;;;;;;;;;;;;;;5086526;28;20082;-75
2022/09/28 10:56:43;;;;;;;;;;;;;;;;;;5067970;28;19912;-74
2022/09/28 10:59:15;;;;;;;;;;;;;;;;;;5070643;28;19912;-75
2022/09/28 11:01:43;;;;;;;;;;;;;;;;;;5048781;28;19952;-74
2022/09/28 11:04:09;;;;;;;;;;;;;;;;;;5039962;28;19909;-74
2022/09/28 11:06:35;;;;;;;;;;;;;;;;;;5054304;28;19983;-74
2022/09/28 11:09:01;;;;;;;;;;;;;;;;;;5085093;28;19952;-75
2022/09/28 11:11:28;;;;;;;;;;;;;;;;;;5082048;28;19920;-74
2022/09/28 11:14:01;;;;;;;;;;;;;;;;;;5051773;28;19916;-74
2022/09/28 11:16:30;;;;;;;;;;;;;;;;;;5070107;28;19962;-74
2022/09/28 11:18:57;;;;;;;;;;;;;;;;;;5062971;28;19919;-75
2022/09/28 11:21:23;;;;;;;;;;;;;;;;;;5067373;28;19916;-74
2022/09/28 11:23:54;;;;;;;;;;;;;;;;;;5064891;28;19982;-76
2022/09/28 11:26:20;;;;;;;;;;;;;;;;;;5084982;28;19920;-76
2022/09/28 11:28:46;;;;;;;;;;;;;;;;;;5054685;28;19913;-74
2022/09/28 11:31:19;;;;;;;;;;;;;;;;;;5046792;28;19913;-74
2022/09/28 11:33:52;;;;;;;;;;;;;;;;;;5050846;28;19912;-74
2022/09/28 11:36:35;;;;;;;;;;;;;;;;;;5079615;28;19919;-76
2022/09/28 11:39:00;;;;;;;;;;;;;;;;;;5064518;28;20290;-74
2022/09/28 11:41:37;;;;;;;;;;;;;;;;;;5027056;28;20019;-74
2022/09/28 11:44:03;;;;;;;;;;;;;;;;;;5045030;28;19975;-75
2022/09/28 11:46:31;;;;;;;;;;;;;;;;;;5025038;28;19947;-74
2022/09/28 11:49:04;;;;;;;;;;;;;;;;;;5070761;28;19916;-75
2022/09/28 11:51:30;;;;;;;;;;;;;;;;;;5032159;28;19912;-75
2022/09/28 11:53:58;;;;;;;;;;;;;;;;;;5075281;28;19913;-74
2022/09/28 11:56:25;;;;;;;;;;;;;;;;;;5060783;28;19962;-76
2022/09/28 11:58:51;;;;;;;;;;;;;;;;;;5044474;28;19912;-75
2022/09/28 12:01:21;;;;;;;;;;;;;;;;;;5029680;28;19939;-74
2022/09/28 12:04:09;;;;;;;;;;;;;;;;;;5060098;28;19912;-76
2022/09/28 12:06:35;;;;;;;;;;;;;;;;;;5043215;28;19919;-76
2022/09/28 12:09:02;;;;;;;;;;;;;;;;;;5044206;28;19913;-75
2022/09/28 12:11:48;;;;;;;;;;;;;;;;;;5060746;28;19927;-74
2022/09/28 12:14:13;;;;;;;;;;;;;;;;;;5086742;28;20001;-76
2022/09/28 12:16:38;;;;;;;;;;;;;;;;;;5059873;28;19913;-76
2022/09/28 12:19:04;;;;;;;;;;;;;;;;;;5044282;28;20003;-74
2022/09/28 12:21:30;;;;;;;;;;;;;;;;;;5059788;28;20036;-74
2022/09/28 12:23:55;;;;;;;;;;;;;;;;;;5047921;28;20408;-75
2022/09/28 12:26:21;;;;;;;;;;;;;;;;;;5071346;28;19966;-77
2022/09/28 12:28:47;;;;;;;;;;;;;;;;;;5061180;28;19995;-74
2022/09/28 12:31:13;;;;;;;;;;;;;;;;;;5047208;28;20343;-75
2022/09/28 12:33:39;;;;;;;;;;;;;;;;;;5057530;28;19912;-75
2022/09/28 12:36:04;;;;;;;;;;;;;;;;;;5080985;28;20464;-75
2022/09/28 12:38:30;;;;;;;;;;;;;;;;;;5053773;28;19912;-74
2022/09/28 12:40:56;;;;;;;;;;;;;;;;;;5013002;28;20272;-74
2022/09/28 12:43:23;;;;;;;;;;;;;;;;;;5069689;28;19922;-80
2022/09/28 12:45:49;;;;;;;;;;;;;;;;;;5063419;28;19979;-80
2022/09/28 12:48:16;;;;;;;;;;;;;;;;;;5079502;28;19912;-80
2022/09/28 12:50:44;;;;;;;;;;;;;;;;;;5049879;28;19916;-80
2022/09/28 12:53:10;;;;;;;;;;;;;;;;;;5065276;28;19963;-80
2022/09/28 12:55:36;;;;;;;;;;;;;;;;;;5055817;28;19943;-79
2022/09/28 12:58:04;;;;;;;;;;;;;;;;;;5081118;28;19974;-80
2022/09/28 13:00:31;;;;;;;;;;;;;;;;;;5091431;28;19912;-81
2022/09/28 13:02:56;;;;;;;;;;;;;;;;;;5066321;28;19958;-80
2022/09/28 13:05:22;;;;;;;;;;;;;;;;;;5051829;28;19913;-79
2022/09/28 13:07:49;;;;;;;;;;;;;;;;;;5079982;28;19912;-80
2022/09/28 13:10:15;;;;;;;;;;;;;;;;;;5047346;28;19957;-80
2022/09/28 13:12:44;;;;;;;;;;;;;;;;;;5063254;28;19948;-79
2022/09/28 13:15:10;;;;;;;;;;;;;;;;;;5067409;28;20370;-81
2022/09/28 13:17:41;;;;;;;;;;;;;;;;;;5099592;28;19913;-80
2022/09/28 13:20:07;;;;;;;;;;;;;;;;;;5048913;28;19912;-75
2022/09/28 13:22:38;;;;;;;;;;;;;;;;;;5059994;28;19959;-74
2022/09/28 13:25:04;;;;;;;;;;;;;;;;;;5047633;28;19912;-74
2022/09/28 13:27:30;;;;;;;;;;;;;;;;;;5077248;28;19920;-73
2022/09/28 13:29:56;;;;;;;;;;;;;;;;;;5062445;28;19908;-74
2022/09/28 13:32:23;;;;;;;;;;;;;;;;;;5052055;28;19916;-76
2022/09/28 13:34:49;;;;;;;;;;;;;;;;;;5045232;28;19912;-75
2022/09/28 13:37:24;;;;;;;;;;;;;;;;;;5058701;28;19920;-76
2022/09/28 13:39:55;;;;;;;;;;;;;;;;;;5057207;28;19982;-74
2022/09/28 13:42:20;;;;;;;;;;;;;;;;;;5055564;28;19923;-75
2022/09/28 13:44:46;;;;;;;;;;;;;;;;;;5057879;28;20006;-76
2022/09/28 13:47:12;;;;;;;;;;;;;;;;;;5042292;28;19912;-75
2022/09/28 13:49:38;;;;;;;;;;;;;;;;;;5060181;22;19986;-71
2022/09/28 13:52:04;;;;;;;;;;;;;;;;;;5045611;28;20339;-73
2022/09/28 13:54:29;;;;;;;;;;;;;;;;;;5044886;28;19962;-72
2022/09/28 13:56:55;;;;;;;;;;;;;;;;;;5067305;28;20379;-72
2022/09/28 13:59:20;;;;;;;;;;;;;;;;;;5051327;28;19954;-73
2022/09/28 14:01:46;;;;;;;;;;;;;;;;;;5056664;28;20387;-73
2022/09/28 14:04:11;;;;;;;;;;;;;;;;;;5044591;28;19920;-70
2022/09/28 14:06:37;;;;;;;;;;;;;;;;;;5046216;28;19956;-74
2022/09/28 14:09:03;;;;;;;;;;;;;;;;;;5037736;28;20390;-73
2022/09/28 14:11:28;;;;;;;;;;;;;;;;;;5037320;28;19913;-73
2022/09/28 14:13:54;;;;;;;;;;;;;;;;;;5055979;28;19912;-72
2022/09/28 14:16:20;;;;;;;;;;;;;;;;;;5043713;28;19912;-74
2022/09/28 14:18:45;;;;;;;;;;;;;;;;;;5037475;28;19936;-72
2022/09/28 14:21:10;;;;;;;;;;;;;;;;;;5016600;28;20304;-72
2022/09/28 14:23:36;;;;;;;;;;;;;;;;;;5047875;28;19916;-73
2022/09/28 14:26:02;;;;;;;;;;;;;;;;;;5024035;28;19913;-73
2022/09/28 14:28:28;;;;;;;;;;;;;;;;;;5023889;28;20003;-73
2022/09/28 14:30:54;;;;;;;;;;;;;;;;;;5040183;28;20008;-73
2022/09/28 14:33:20;;;;;;;;;;;;;;;;;;5059614;28;19944;-73
2022/09/28 14:35:46;;;;;;;;;;;;;;;;;;5041145;28;19923;-74
2022/09/28 14:41:08;;;;;;;;;;;;;;;;;;5023320;28;20429;-72
2022/09/28 14:43:33;;;;;;;;;;;;;;;;;;5051028;28;19923;-71
2022/09/28 14:45:59;;;;;;;;;;;;;;;;;;5033758;28;19995;-72
2022/09/28 14:48:25;;;;;;;;;;;;;;;;;;5057537;28;19999;-72
2022/09/28 14:50:54;;;;;;;;;;;;;;;;;;5039753;28;20465;-73
2022/09/28 14:53:19;;;;;;;;;;;;;;;;;;5041034;28;19958;-72
2022/09/28 14:55:48;;;;;;;;;;;;;;;;;;5054665;28;20313;-74
2022/09/28 14:58:15;;;;;;;;;;;;;;;;;;5039841;28;19912;-84
2022/09/28 15:00:41;;;;;;;;;;;;;;;;;;5027499;28;20387;-74
2022/09/28 15:03:06;;;;;;;;;;;;;;;;;;5036511;28;19917;-75
2022/09/28 15:05:31;;;;;;;;;;;;;;;;;;5024923;28;20278;-73
2022/09/28 15:07:57;;;;;;;;;;;;;;;;;;5051784;28;20158;-73
2022/09/28 15:10:23;;;;;;;;;;;;;;;;;;5030668;28;20311;-73
2022/09/28 15:12:48;;;;;;;;;;;;;;;;;;5041419;28;19912;-73
2022/09/28 15:15:14;;;;;;;;;;;;;;;;;;5040376;28;19919;-73
2022/09/28 15:17:40;;;;;;;;;;;;;;;;;;5062456;28;20367;-74
2022/09/28 15:20:07;;;;;;;;;;;;;;;;;;5037697;28;20390;-73
2022/09/28 15:22:33;;;;;;;;;;;;;;;;;;5040702;28;20371;-73
2022/09/28 15:24:58;;;;;;;;;;;;;;;;;;5044325;28;19920;-70
2022/09/28 15:27:24;;;;;;;;;;;;;;;;;;5037885;28;19974;-71
2022/09/28 15:29:49;;;;;;;;;;;;;;;;;;5037450;28;20011;-71
2022/09/28 15:32:15;;;;;;;;;;;;;;;;;;5030166;28;19923;-71
2022/09/28 15:34:53;;;;;;;;;;;;;;;;;;5020365;28;19944;-71
2022/09/28 15:37:20;;;;;;;;;;;;;;;;;;5056067;28;19920;-73
2022/09/28 15:39:47;;;;;;;;;;;;;;;;;;5020814;28;19912;-71
2022/09/28 15:42:15;;;;;;;;;;;;;;;;;;5036893;28;19959;-71
2022/09/28 15:44:41;;;;;;;;;;;;;;;;;;5054645;28;19958;-71
2022/09/28 15:47:12;;;;;;;;;;;;;;;;;;5019859;28;19913;-71
2022/09/28 15:49:40;;;;;;;;;;;;;;;;;;5022912;28;20291;-71
2022/09/28 15:52:05;;;;;;;;;;;;;;;;;;5065581;28;19920;-71
2022/09/28 15:54:33;;;;;;;;;;;;;;;;;;5047015;28;20306;-70
2022/09/28 15:57:00;;;;;;;;;;;;;;;;;;5016136;28;19940;-70
2022/09/28 15:59:26;;;;;;;;;;;;;;;;;;5037070;28;19912;-71
2022/09/28 16:01:51;;;;;;;;;;;;;;;;;;5038634;28;19917;-70
2022/09/28 16:04:17;;;;;;;;;;;;;;;;;;5028734;28;19909;-71
2022/09/28 16:06:42;;;;;;;;;;;;;;;;;;5047653;28;19919;-70
2022/09/28 16:09:08;;;;;;;;;;;;;;;;;;5064869;28;20291;-70
2022/09/28 16:11:33;;;;;;;;;;;;;;;;;;5043697;28;19948;-71
2022/09/28 16:14:05;;;;;;;;;;;;;;;;;;5023640;28;19984;-70
2022/09/28 16:16:31;;;;;;;;;;;;;;;;;;5031635;28;19913;-71
2022/09/28 16:18:57;;;;;;;;;;;;;;;;;;5021993;28;20328;-72
2022/09/28 16:21:23;;;;;;;;;;;;;;;;;;5063187;28;19913;-72
2022/09/28 16:23:48;;;;;;;;;;;;;;;;;;5038400;28;19912;-72
2022/09/28 16:26:14;;;;;;;;;;;;;;;;;;5045354;28;19912;-73
2022/09/28 16:28:41;;;;;;;;;;;;;;;;;;5043255;28;19991;-73
2022/09/28 16:31:06;;;;;;;;;;;;;;;;;;5007071;28;19921;-73
2022/09/28 16:33:32;;;;;;;;;;;;;;;;;;5050334;28;19916;-72
2022/09/28 16:35:58;;;;;;;;;;;;;;;;;;5030530;28;19913;-72
2022/09/28 16:38:23;;;;;;;;;;;;;;;;;;5028189;28;20007;-83
2022/09/28 16:40:49;;;;;;;;;;;;;;;;;;5043171;28;20020;-74
2022/09/28 16:43:14;;;;;;;;;;;;;;;;;;5043789;28;20383;-75
2022/09/28 16:45:40;;;;;;;;;;;;;;;;;;5045836;28;19912;-74
2022/09/28 16:48:05;;;;;;;;;;;;;;;;;;5047051;28;19962;-76
2022/09/28 16:50:31;;;;;;;;;;;;;;;;;;5053039;28;19916;-76
2022/09/28 16:55:41;;;;;;;;;;;;;;;;;;5038075;28;19916;-75
2022/09/28 16:58:07;;;;;;;;;;;;;;;;;;5047317;28;20282;-77
2022/09/28 17:00:32;;;;;;;;;;;;;;;;;;5061601;28;19916;-76
2022/09/28 17:02:58;;;;;;;;;;;;;;;;;;5042666;28;20428;-76
2022/09/28 17:05:24;;;;;;;;;;;;;;;;;;5061892;28;19941;-76
2022/09/28 17:07:49;;;;;;;;;;;;;;;;;;5041325;28;20295;-75
2022/09/28 17:10:15;;;;;;;;;;;;;;;;;;5036173;28;20306;-76